M I D A S
Marine Information and Data Acquisition System
Tripno 1992 of the Zeeleeuw from 2010-12-13 08:06:46 to 2010-12-13 18:18:51
Back to CruiseResearch ActivitiesStationsMapUnderway DataData graphs

EquipmentUnitsComment
TimeDGPSUTC
LatitudeDGPSDM.mWGS84
LongitudeDGPSDM.mWGS84
HeadingGyrodeg 
SOGDGPSknotsSpeed over ground
COGDGPSdegCourse over ground
DepthEcho soundermeters200 kHz
Missing or incorrect values are displayed as -999
Navigation data collected by the RV Zeeleeuw from 2010-12-13 07:54:21 to 2010-12-13 18:30:19
                                                                                    Next 1000 lines
Time Latitude Longitude Heading SOG COG Depth
2010-12-13 07:54:31 51°13.66 2°55.96 112.6 0.1 192 8.3
2010-12-13 07:54:35 51°13.66 2°55.96 111.1 0.1 213 8.3
2010-12-13 07:54:41 51°13.66 2°55.959 109.5 0.1 248 8.3
2010-12-13 07:54:46 51°13.66 2°55.959 108.3 0.3 270 8.3
2010-12-13 07:54:51 51°13.66 2°55.957 107.6 0.6 287 8.4
2010-12-13 07:54:56 51°13.661 2°55.955 107.3 1.2 284 8.4
2010-12-13 07:55:01 51°13.662 2°55.951 107.2 1.7 289 8.3
2010-12-13 07:55:06 51°13.663 2°55.947 107.3 2.1 288 8.2
2010-12-13 07:55:11 51°13.664 2°55.941 107.7 2.4 290 5
2010-12-13 07:55:17 51°13.666 2°55.935 108.1 2.9 291 -999
2010-12-13 07:55:23 51°13.668 2°55.927 108.2 3.2 291 -999
2010-12-13 07:55:29 51°13.669 2°55.918 107.9 3.5 290 -999
2010-12-13 07:55:35 51°13.671 2°55.909 107.5 3.7 290 -999
2010-12-13 07:55:40 51°13.673 2°55.901 107.3 3.8 289 -999
2010-12-13 07:55:45 51°13.675 2°55.892 107 3.9 290 -999
2010-12-13 07:55:50 51°13.677 2°55.884 106.7 4 289 -999
2010-12-13 07:55:55 51°13.679 2°55.875 106.1 4.1 289 -999
2010-12-13 07:56:00 51°13.68 2°55.866 105.5 4.2 288 -999
2010-12-13 07:56:05 51°13.682 2°55.857 104.8 4.2 287 -999
2010-12-13 07:56:10 51°13.684 2°55.849 104 4.2 287 -999
2010-12-13 07:56:15 51°13.685 2°55.84 103.1 4.1 286 -999
2010-12-13 07:56:20 51°13.687 2°55.832 102.1 4 285 -999
2010-12-13 07:56:25 51°13.688 2°55.824 101.1 3.8 284 -999
2010-12-13 07:56:30 51°13.689 2°55.816 100.2 3.7 284 -999
2010-12-13 07:56:35 51°13.691 2°55.808 99.4 3.8 283 -999
2010-12-13 07:56:40 51°13.692 2°55.8 98.7 3.8 283 4.8
2010-12-13 07:56:45 51°13.693 2°55.792 98.1 3.7 281 13.5
2010-12-13 07:56:50 51°13.694 2°55.784 97.4 3.6 281 4.7
2010-12-13 07:56:55 51°13.694 2°55.776 95.8 3.5 278 -999
2010-12-13 07:57:00 51°13.695 2°55.769 93.3 3.4 278 -999
2010-12-13 07:57:05 51°13.695 2°55.762 91.4 3.2 276 14.5
2010-12-13 07:57:10 51°13.696 2°55.755 90.1 3.1 276 -999
2010-12-13 07:57:15 51°13.696 2°55.749 89.1 2.7 274 14.2
2010-12-13 07:57:19 51°13.696 2°55.746 87.9 2.1 274 13.9
2010-12-13 07:57:24 51°13.696 2°55.743 86.5 1.5 276 13.9
2010-12-13 07:57:30 51°13.696 2°55.74 83.6 0.9 280 13.9
2010-12-13 07:57:35 51°13.697 2°55.74 80.1 0.5 294 14.1
2010-12-13 07:57:39 51°13.697 2°55.739 75.6 0.4 307 14.1
2010-12-13 07:57:44 51°13.698 2°55.739 71.2 0.4 323 14.2
2010-12-13 07:57:49 51°13.698 2°55.739 67.2 0.4 2 14.2
2010-12-13 07:57:54 51°13.699 2°55.739 63.5 0.6 27 14.2
2010-12-13 07:57:59 51°13.7 2°55.74 59.6 0.7 27 14
2010-12-13 07:58:03 51°13.701 2°55.741 54.6 0.8 29 13.6
2010-12-13 07:58:08 51°13.702 2°55.742 50.2 1 29 13.4
2010-12-13 07:58:14 51°13.704 2°55.743 45.8 1.1 29 13.6
2010-12-13 07:58:19 51°13.705 2°55.744 41.8 1.1 27 13.6
2010-12-13 07:58:23 51°13.706 2°55.745 37.8 1 21 13.8
2010-12-13 07:58:28 51°13.707 2°55.745 34.8 0.6 17 14
2010-12-13 07:58:33 51°13.707 2°55.745 32.3 0.2 339 14.2
2010-12-13 07:58:38 51°13.706 2°55.745 29.5 0.2 242 14.1
2010-12-13 07:58:43 51°13.706 2°55.744 26.7 0.5 226 13.9
2010-12-13 07:58:48 51°13.705 2°55.743 24.3 0.8 216 13.9
2010-12-13 07:58:53 51°13.704 2°55.741 22.6 1.1 211 13.7
2010-12-13 07:58:58 51°13.702 2°55.74 21.3 1.5 208 13.5
2010-12-13 07:59:03 51°13.7 2°55.738 19.7 1.6 208 13.4
2010-12-13 07:59:08 51°13.698 2°55.737 18.5 1.6 205 -999
2010-12-13 07:59:14 51°13.696 2°55.735 17.5 1.5 209 -999
2010-12-13 07:59:19 51°13.695 2°55.734 16.6 0.5 209 -999
2010-12-13 07:59:25 51°13.695 2°55.733 14.6 0.5 312 -999
2010-12-13 07:59:30 51°13.697 2°55.733 9 1 359 -999
2010-12-13 07:59:35 51°13.699 2°55.732 2.3 1.7 346 -999
2010-12-13 07:59:39 51°13.702 2°55.731 356.9 2.5 349 -999
2010-12-13 07:59:44 51°13.707 2°55.73 351.7 3.2 345 4.7
2010-12-13 07:59:50 51°13.713 2°55.727 348.7 3.9 345 -999
2010-12-13 07:59:55 51°13.719 2°55.724 346.6 4.5 343 12.6
2010-12-13 07:59:59 51°13.724 2°55.721 344.6 5.1 343 12.9
2010-12-13 08:00:04 51°13.731 2°55.717 343.1 5.6 341 13
2010-12-13 08:00:09 51°13.739 2°55.713 342 6.2 341 12.6
2010-12-13 08:00:14 51°13.748 2°55.708 341.2 6.7 339 12.2
2010-12-13 08:00:19 51°13.757 2°55.703 340 7 339 11.6
2010-12-13 08:00:24 51°13.767 2°55.696 338.6 7.4 337 11.1
2010-12-13 08:00:29 51°13.777 2°55.689 337.2 7.8 336 10.8
2010-12-13 08:00:34 51°13.787 2°55.681 335.5 8.1 334 10.8
2010-12-13 08:00:39 51°13.797 2°55.673 334.4 8.3 333 10.7
2010-12-13 08:00:43 51°13.806 2°55.666 333.2 8.5 333 10.7
2010-12-13 08:00:48 51°13.816 2°55.657 332 8.7 331 10.7
2010-12-13 08:00:53 51°13.827 2°55.648 330.8 8.9 332 10.6
2010-12-13 08:00:59 51°13.84 2°55.636 330.4 9.2 332 10.7
2010-12-13 08:01:03 51°13.85 2°55.628 330.5 9.3 332 10.8
2010-12-13 08:01:08 51°13.861 2°55.619 331.3 9.5 332 10.8
2010-12-13 08:01:13 51°13.873 2°55.608 331.5 9.6 331 11
2010-12-13 08:01:18 51°13.885 2°55.598 331.1 9.8 332 11.2
2010-12-13 08:01:23 51°13.897 2°55.587 331.1 9.9 332 11.9
2010-12-13 08:01:28 51°13.91 2°55.578 332.4 10 334 11.8
2010-12-13 08:01:33 51°13.922 2°55.568 333.1 10.1 333 11.7
2010-12-13 08:01:38 51°13.935 2°55.558 333.1 10.2 334 11.8
2010-12-13 08:01:43 51°13.948 2°55.548 333.7 10.2 335 11.8
2010-12-13 08:01:47 51°13.958 2°55.541 334.4 10.2 335 11.7
2010-12-13 08:01:52 51°13.971 2°55.531 334.6 10.3 335 11.7
2010-12-13 08:01:57 51°13.984 2°55.522 334.9 10.3 336 11.7
2010-12-13 08:02:02 51°13.997 2°55.512 335.1 10.3 335 11.6
2010-12-13 08:02:07 51°14.01 2°55.503 334.4 10.3 335 11.5
2010-12-13 08:02:13 51°14.025 2°55.491 334.5 10.3 335 -999
2010-12-13 08:02:18 51°14.038 2°55.482 334.5 10.3 335 11.5
2010-12-13 08:02:23 51°14.051 2°55.472 334.3 10.3 335 -999
2010-12-13 08:02:29 51°14.067 2°55.461 334.4 10.4 335 11.4
2010-12-13 08:02:35 51°14.083 2°55.449 334.7 10.3 335 11.7
2010-12-13 08:02:39 51°14.093 2°55.441 334.7 10.4 334 -999
2010-12-13 08:02:44 51°14.106 2°55.431 334.5 10.3 335 11.4
2010-12-13 08:02:50 51°14.121 2°55.419 334.4 10.4 334 -999
2010-12-13 08:02:55 51°14.134 2°55.41 334.2 10.3 335 -999
2010-12-13 08:03:00 51°14.147 2°55.4 334.6 10.3 335 -999
2010-12-13 08:03:05 51°14.16 2°55.391 334.6 10.3 335 11.3
2010-12-13 08:03:10 51°14.173 2°55.381 334.7 10.3 335 -999
2010-12-13 08:03:15 51°14.186 2°55.371 335.2 10.3 336 11.3
2010-12-13 08:03:19 51°14.196 2°55.364 335.5 10.2 335 -999
2010-12-13 08:03:25 51°14.212 2°55.352 335.5 10.3 335 -999
2010-12-13 08:03:30 51°14.225 2°55.343 335.2 10.3 335 -999
2010-12-13 08:03:35 51°14.238 2°55.333 334.8 10.3 334 11.2
2010-12-13 08:03:39 51°14.248 2°55.325 334.3 10.3 333 -999
2010-12-13 08:03:45 51°14.263 2°55.312 333.2 10.4 333 11.4
2010-12-13 08:03:50 51°14.276 2°55.301 332.6 10.4 332 11
2010-12-13 08:03:55 51°14.289 2°55.29 331.9 10.5 331 -999
2010-12-13 08:03:59 51°14.299 2°55.281 330.5 10.5 330 11.2
2010-12-13 08:04:04 51°14.311 2°55.269 329.5 10.6 329 11.3
2010-12-13 08:04:10 51°14.327 2°55.254 328.8 10.7 329 11.3
2010-12-13 08:04:15 51°14.339 2°55.242 327.9 10.6 328 -999
2010-12-13 08:04:19 51°14.349 2°55.232 327 10.7 328 -999
2010-12-13 08:04:25 51°14.364 2°55.217 327 10.7 328 -999
2010-12-13 08:04:29 51°14.375 2°55.207 327.6 10.7 329 -999
2010-12-13 08:04:35 51°14.39 2°55.192 328.2 10.7 328 -999
2010-12-13 08:04:39 51°14.4 2°55.182 328.4 10.7 328 11.2
2010-12-13 08:04:44 51°14.413 2°55.169 328.2 10.7 328 11.4
2010-12-13 08:04:49 51°14.425 2°55.157 328.1 10.7 328 11.4
2010-12-13 08:04:55 51°14.44 2°55.141 327.7 10.7 327 12
2010-12-13 08:04:59 51°14.45 2°55.131 327.3 10.7 326 11.7
2010-12-13 08:05:04 51°14.462 2°55.117 326.3 10.7 325 10.9
2010-12-13 08:05:09 51°14.474 2°55.103 325.8 10.7 325 11.7
2010-12-13 08:05:14 51°14.486 2°55.09 325.2 10.7 324 12
2010-12-13 08:05:19 51°14.498 2°55.076 324.4 10.6 324 11.5
2010-12-13 08:05:24 51°14.51 2°55.062 324.2 10.7 323 11.5
2010-12-13 08:05:29 51°14.522 2°55.048 324 10.7 324 12
2010-12-13 08:05:34 51°14.534 2°55.033 324 10.7 322 12.5
2010-12-13 08:05:39 51°14.546 2°55.018 323.3 10.8 321 12.6
2010-12-13 08:05:43 51°14.555 2°55.006 322.3 10.8 320 12.6
2010-12-13 08:05:48 51°14.566 2°54.99 321.1 10.8 319 12.5
2010-12-13 08:05:53 51°14.577 2°54.974 319.7 10.8 318 12.1
2010-12-13 08:05:58 51°14.588 2°54.958 318.8 11 318 12.4
2010-12-13 08:06:03 51°14.6 2°54.942 318.5 10.9 321 12.1
2010-12-13 08:06:08 51°14.612 2°54.928 320.3 10.9 321 12.1
2010-12-13 08:06:13 51°14.624 2°54.913 321.3 10.9 324 12.2
2010-12-13 08:06:18 51°14.637 2°54.901 323.1 10.8 332 11.8
2010-12-13 08:06:23 51°14.65 2°54.892 329.3 10.6 337 12.1
2010-12-13 08:06:28 51°14.664 2°54.885 336.2 10.3 343 12.4
2010-12-13 08:06:33 51°14.678 2°54.88 342.6 10.3 345 12.4
2010-12-13 08:06:38 51°14.692 2°54.875 346.2 10.1 348 12.3
2010-12-13 08:06:43 51°14.705 2°54.871 348 9.9 349 12.6
2010-12-13 08:06:47 51°14.716 2°54.868 349.6 9.7 351 12.8
2010-12-13 08:06:52 51°14.729 2°54.865 350.9 9.4 352 12.4
2010-12-13 08:06:57 51°14.742 2°54.863 352.6 9.3 354 11.4
2010-12-13 08:07:02 51°14.754 2°54.861 354 9.1 355 10.6
2010-12-13 08:07:07 51°14.767 2°54.86 355.1 9 356 10.3
2010-12-13 08:07:12 51°14.78 2°54.859 356.5 9.1 357 10.8
2010-12-13 08:07:17 51°14.793 2°54.858 357.5 9.2 359 10.8
2010-12-13 08:07:22 51°14.805 2°54.858 358.4 9.3 359 10.7
2010-12-13 08:07:27 51°14.819 2°54.858 358.8 9.5 359 10.7
2010-12-13 08:07:31 51°14.829 2°54.857 359 9.7 -999 10.7
2010-12-13 08:07:37 51°14.846 2°54.857 359 9.7 359 11.1
2010-12-13 08:07:42 51°14.859 2°54.857 359.3 9.8 -999 11
2010-12-13 08:07:47 51°14.873 2°54.857 359.6 9.8 -999 10.6
2010-12-13 08:07:51 51°14.883 2°54.857 359.6 9.5 -999 10.1
2010-12-13 08:07:56 51°14.896 2°54.857 359.6 9.2 1 10.3
2010-12-13 08:08:01 51°14.908 2°54.857 359.5 8.8 359 9.9
2010-12-13 08:08:06 51°14.92 2°54.857 359.7 8.5 1 10.4
2010-12-13 08:08:11 51°14.932 2°54.856 359.4 8.5 358 10.1
2010-12-13 08:08:16 51°14.943 2°54.857 359.3 8.3 1 10.1
2010-12-13 08:08:21 51°14.954 2°54.856 359.4 8 359 10.2
2010-12-13 08:08:26 51°14.965 2°54.856 359.5 7.8 359 9.9
2010-12-13 08:08:31 51°14.976 2°54.856 359.1 7.8 358 9.8
2010-12-13 08:08:35 51°14.985 2°54.854 356.8 7.6 355 10.3
2010-12-13 08:08:41 51°14.997 2°54.851 352.8 7.3 350 10.4
2010-12-13 08:08:46 51°15.006 2°54.847 348.2 7.1 345 10.4
2010-12-13 08:08:51 51°15.015 2°54.843 343 6.8 342 10.1
2010-12-13 08:08:56 51°15.023 2°54.837 339.4 6.5 338 10.1
2010-12-13 08:09:01 51°15.031 2°54.831 335 6.4 334 10
2010-12-13 08:09:06 51°15.039 2°54.825 331.2 6.3 331 10
2010-12-13 08:09:11 51°15.046 2°54.818 327.6 6.2 329 10
2010-12-13 08:09:15 51°15.052 2°54.812 325.6 6 327 9.7
2010-12-13 08:09:21 51°15.06 2°54.803 323.4 5.9 325 9.8
2010-12-13 08:09:26 51°15.067 2°54.796 321.7 5.8 323 9.8
2010-12-13 08:09:31 51°15.073 2°54.788 320.4 5.6 324 9.5
2010-12-13 08:09:36 51°15.079 2°54.78 318.6 5.6 321 9.8
2010-12-13 08:09:41 51°15.085 2°54.772 317.4 5.7 320 9.8
2010-12-13 08:09:46 51°15.091 2°54.764 316.9 5.7 319 9.7
2010-12-13 08:09:51 51°15.097 2°54.756 316.1 5.6 319 9.9
2010-12-13 08:09:56 51°15.103 2°54.748 315.4 5.6 318 9.5
2010-12-13 08:10:01 51°15.108 2°54.74 314.8 5.6 318 9.5
2010-12-13 08:10:06 51°15.114 2°54.731 314.4 5.6 318 9.3
2010-12-13 08:10:11 51°15.12 2°54.723 314.2 5.6 318 9.6
2010-12-13 08:10:16 51°15.126 2°54.715 314.1 5.5 318 9.3
2010-12-13 08:10:21 51°15.131 2°54.707 314.2 5.6 318 9.2
2010-12-13 08:10:26 51°15.137 2°54.699 314.3 5.5 318 9.4
2010-12-13 08:10:31 51°15.142 2°54.691 313.9 5.4 317 9.9
2010-12-13 08:10:36 51°15.148 2°54.683 312.9 5.4 316 9.1
2010-12-13 08:10:41 51°15.153 2°54.674 310 5.3 311 9.4
2010-12-13 08:10:46 51°15.157 2°54.665 306.6 5.3 308 9.5
2010-12-13 08:10:51 51°15.162 2°54.655 303.7 5.2 307 9.2
2010-12-13 08:10:56 51°15.165 2°54.645 300.1 5.2 303 9.5
2010-12-13 08:11:01 51°15.169 2°54.636 296.3 5.1 300 9.3
2010-12-13 08:11:06 51°15.172 2°54.625 292.9 5.1 297 9.3
2010-12-13 08:11:11 51°15.175 2°54.615 289.4 5.1 293 9.4
2010-12-13 08:11:16 51°15.177 2°54.605 286.3 5 291 9.9
2010-12-13 08:11:21 51°15.18 2°54.594 283.9 5 289 9.7
2010-12-13 08:11:26 51°15.182 2°54.583 281.7 5.1 287 9.5
2010-12-13 08:11:31 51°15.183 2°54.572 278.9 5.1 282 9.9
2010-12-13 08:11:36 51°15.185 2°54.561 277.8 5.2 285 9.3
2010-12-13 08:11:41 51°15.186 2°54.55 276.2 5.3 277 9.6
2010-12-13 08:11:46 51°15.188 2°54.538 274.7 5.5 284 9.4
2010-12-13 08:11:51 51°15.189 2°54.526 273.7 5.6 278 9.7
2010-12-13 08:11:56 51°15.19 2°54.513 272.3 5.9 277 9.6
2010-12-13 08:12:01 51°15.191 2°54.5 271.7 6 277 9.9
2010-12-13 08:12:06 51°15.192 2°54.486 271.3 6.2 277 9.7
2010-12-13 08:12:11 51°15.192 2°54.473 270.1 6.3 274 10
2010-12-13 08:12:16 51°15.193 2°54.458 269.6 6.5 275 9.9
2010-12-13 08:12:21 51°15.194 2°54.444 269.3 6.6 271 9.9
2010-12-13 08:12:26 51°15.194 2°54.429 268.9 6.7 273 9.7
2010-12-13 08:12:31 51°15.194 2°54.414 268.6 6.8 272 9.6
2010-12-13 08:12:36 51°15.195 2°54.398 268.1 6.9 271 9.8
2010-12-13 08:12:41 51°15.195 2°54.383 268.3 7 270 9.9
2010-12-13 08:12:46 51°15.195 2°54.367 267.7 7.1 268 9.7
2010-12-13 08:12:51 51°15.193 2°54.352 264.3 7 262 10.2
2010-12-13 08:12:56 51°15.191 2°54.337 259.9 7 257 11
2010-12-13 08:13:01 51°15.189 2°54.321 255.4 7.1 255 10.7
2010-12-13 08:13:06 51°15.185 2°54.307 249.9 7 249 10.7
2010-12-13 08:13:11 51°15.181 2°54.293 244.8 7 243 11.4
2010-12-13 08:13:16 51°15.176 2°54.279 241 7.1 242 11.7
2010-12-13 08:13:21 51°15.171 2°54.266 237.1 7.1 239 12
2010-12-13 08:13:26 51°15.165 2°54.253 235.2 7.2 234 12
2010-12-13 08:13:31 51°15.16 2°54.239 233.6 7.3 237 11.9
2010-12-13 08:13:36 51°15.153 2°54.227 230.9 7.3 232 11.6
2010-12-13 08:13:41 51°15.147 2°54.214 230.3 7.4 231 11.6
2010-12-13 08:13:46 51°15.141 2°54.201 228.6 7.4 232 11
2010-12-13 08:13:51 51°15.134 2°54.189 227.6 7.4 228 10.2
2010-12-13 08:13:56 51°15.127 2°54.176 226.5 7.5 230 9.7
2010-12-13 08:14:01 51°15.12 2°54.164 225.5 7.5 227 9.8
2010-12-13 08:14:06 51°15.113 2°54.151 225.2 7.6 229 9.8
2010-12-13 08:14:11 51°15.106 2°54.139 225 7.6 227 9.8
2010-12-13 08:14:16 51°15.099 2°54.126 224.4 7.7 227 10
2010-12-13 08:14:21 51°15.092 2°54.114 224.8 7.7 226 10.1
2010-12-13 08:14:26 51°15.084 2°54.101 224.2 7.7 229 9.9
2010-12-13 08:14:31 51°15.077 2°54.089 224.6 7.6 225 10.3
2010-12-13 08:14:36 51°15.069 2°54.077 223.1 7.6 223 10.1
2010-12-13 08:14:41 51°15.061 2°54.067 219.9 7.5 219 10
2010-12-13 08:14:46 51°15.052 2°54.058 215 7.6 212 10.3
2010-12-13 08:14:51 51°15.044 2°54.049 210.9 7.3 213 10
2010-12-13 08:14:56 51°15.034 2°54.043 205.5 7.3 201 10.3
2010-12-13 08:15:01 51°15.025 2°54.036 200.4 7.3 202 10.2
2010-12-13 08:15:06 51°15.015 2°54.034 196.7 7.1 192 10.1
2010-12-13 08:15:11 51°15.005 2°54.029 191 7.4 195 10.3
2010-12-13 08:15:16 51°14.996 2°54.026 190.1 7.1 190 10.3
2010-12-13 08:15:21 51°14.986 2°54.024 187 7.2 187 10.2
2010-12-13 08:15:26 51°14.975 2°54.022 184.9 7.4 190 10.5
2010-12-13 08:15:31 51°14.966 2°54.021 185.3 7 184 10.3
2010-12-13 08:15:36 51°14.956 2°54.02 181.5 7.2 184 10.4
2010-12-13 08:15:41 51°14.945 2°54.019 181.5 7.5 184 10.6
2010-12-13 08:15:46 51°14.935 2°54.019 181.3 7.2 182 10.3
2010-12-13 08:15:51 51°14.925 2°54.018 180 7.2 182 10.3
2010-12-13 08:15:56 51°14.915 2°54.018 179.5 7.4 180 10.7
2010-12-13 08:16:01 51°14.905 2°54.017 179.4 7.4 182 10.2
2010-12-13 08:16:06 51°14.894 2°54.018 179.5 7.4 178 10.6
2010-12-13 08:16:11 51°14.884 2°54.017 178.5 7.3 183 9.9
2010-12-13 08:16:16 51°14.874 2°54.018 179.4 7.4 178 10.6
2010-12-13 08:16:21 51°14.864 2°54.018 178.4 7.4 180 10.4
2010-12-13 08:16:26 51°14.854 2°54.02 175.2 7.1 172 10.4
2010-12-13 08:16:31 51°14.844 2°54.022 171.3 7.1 172 10.3
2010-12-13 08:16:36 51°14.834 2°54.027 166.3 7.3 164 10.3
2010-12-13 08:16:41 51°14.825 2°54.031 162.8 7.1 163 10.3
2010-12-13 08:16:46 51°14.816 2°54.038 157.8 6.9 156 10.3
2010-12-13 08:16:51 51°14.808 2°54.045 152.9 7.1 153 10.5
2010-12-13 08:16:56 51°14.799 2°54.053 148.9 7 149 10.5
2010-12-13 08:17:01 51°14.791 2°54.061 147.1 6.9 148 10.6
2010-12-13 08:17:06 51°14.784 2°54.07 143.3 6.7 144 10.5
2010-12-13 08:17:11 51°14.776 2°54.078 142.8 7 146 10.7
2010-12-13 08:17:16 51°14.769 2°54.089 139.8 6.8 137 10.7
2010-12-13 08:17:21 51°14.762 2°54.098 138 6.6 142 10.6
2010-12-13 08:17:26 51°14.755 2°54.108 138 6.8 135 10.7
2010-12-13 08:17:31 51°14.748 2°54.118 135.8 6.8 139 10.9
2010-12-13 08:17:36 51°14.741 2°54.128 135.5 6.7 136 10.8
2010-12-13 08:17:41 51°14.735 2°54.139 134.8 6.5 135 10.6
2010-12-13 08:17:46 51°14.727 2°54.149 134.8 6.9 135 10.9
2010-12-13 08:17:51 51°14.721 2°54.16 134.6 6.7 132 10.8
2010-12-13 08:17:56 51°14.715 2°54.17 133.2 6.5 134 10.8
2010-12-13 08:18:01 51°14.71 2°54.182 130 6.5 125 10.8
2010-12-13 08:18:06 51°14.706 2°54.195 124.6 6.4 121 10.9
2010-12-13 08:18:11 51°14.703 2°54.207 117.2 6.2 111 10.4
2010-12-13 08:18:16 51°14.7 2°54.22 110.8 6.1 109 10.6
2010-12-13 08:18:21 51°14.698 2°54.234 105.6 6.2 100 10.5
2010-12-13 08:18:26 51°14.696 2°54.247 101.7 6.3 105 11
2010-12-13 08:18:31 51°14.696 2°54.261 99.3 6.3 94 10.4
2010-12-13 08:18:36 51°14.694 2°54.275 97.1 6.3 101 10.9
2010-12-13 08:18:41 51°14.694 2°54.288 95.2 6.4 89 10.3
2010-12-13 08:18:46 51°14.693 2°54.303 93.4 6.4 95 10.9
2010-12-13 08:18:51 51°14.694 2°54.317 90.8 6.4 86 10.6
2010-12-13 08:18:56 51°14.693 2°54.332 91 6.6 94 11
2010-12-13 08:19:01 51°14.694 2°54.346 89.4 6.6 84 10.4
2010-12-13 08:19:06 51°14.693 2°54.36 89 6.6 93 11.1
2010-12-13 08:19:11 51°14.695 2°54.375 87.9 6.7 82 10.7
2010-12-13 08:19:16 51°14.694 2°54.39 88.4 6.6 91 10.8
2010-12-13 08:19:21 51°14.696 2°54.404 86 6.6 82 10.7
2010-12-13 08:19:26 51°14.697 2°54.418 83.2 6.5 77 10.9
2010-12-13 08:19:31 51°14.7 2°54.432 78.6 6.5 76 11
2010-12-13 08:19:36 51°14.703 2°54.446 74.7 6.4 70 10.9
2010-12-13 08:19:41 51°14.707 2°54.458 71.2 6.3 66 11
2010-12-13 08:19:46 51°14.711 2°54.471 65.4 6.4 60 10.7
2010-12-13 08:19:51 51°14.716 2°54.483 61.4 6.4 58 11
2010-12-13 08:19:56 51°14.721 2°54.494 57.6 6.4 55 10.9
2010-12-13 08:20:01 51°14.727 2°54.505 55.8 6.4 53 10.9
2010-12-13 08:20:06 51°14.733 2°54.516 53.2 6.4 50 10.9
2010-12-13 08:20:11 51°14.738 2°54.527 51.5 6.5 50 11.2
2010-12-13 08:20:16 51°14.745 2°54.537 50 6.5 46 12
2010-12-13 08:20:21 51°14.75 2°54.548 49 6.5 48 12.2
2010-12-13 08:20:26 51°14.757 2°54.558 47.5 6.6 44 12.2
2010-12-13 08:20:31 51°14.763 2°54.569 46.7 6.6 45 11.9
2010-12-13 08:20:36 51°14.77 2°54.579 45.6 6.7 44 11.9
2010-12-13 08:20:41 51°14.777 2°54.589 45.2 6.7 43 12.2
2010-12-13 08:20:46 51°14.784 2°54.599 44.8 6.7 42 12.1
2010-12-13 08:20:51 51°14.791 2°54.609 44.3 6.8 43 12.1
2010-12-13 08:20:56 51°14.798 2°54.619 43.8 6.8 42 12.7
2010-12-13 08:21:01 51°14.805 2°54.629 43.6 6.8 42 12.2
2010-12-13 08:21:06 51°14.812 2°54.639 43.6 6.8 41 12.7
2010-12-13 08:21:11 51°14.819 2°54.649 43.8 6.8 43 12.6
2010-12-13 08:21:16 51°14.826 2°54.659 43.6 6.8 41 12.8
2010-12-13 08:21:21 51°14.834 2°54.667 41.4 6.7 37 12.5
2010-12-13 08:21:26 51°14.841 2°54.676 38.1 6.7 32 12.7
2010-12-13 08:21:31 51°14.85 2°54.683 34 6.8 30 12.7
2010-12-13 08:21:36 51°14.858 2°54.689 29.4 6.6 26 12.4
2010-12-13 08:21:41 51°14.866 2°54.695 26.5 6.5 23 12.4
2010-12-13 08:21:47 51°14.876 2°54.701 24.1 6.4 21 11.5
2010-12-13 08:21:51 51°14.883 2°54.705 22.2 6.3 20 10.8
2010-12-13 08:21:55 51°14.889 2°54.709 20.4 6.2 17 10.3
2010-12-13 08:22:01 51°14.899 2°54.713 19 6.1 15 10.3
2010-12-13 08:22:06 51°14.907 2°54.716 17.5 6.1 16 10.5
2010-12-13 08:22:11 51°14.916 2°54.719 15.5 6 10 10.3
2010-12-13 08:22:16 51°14.924 2°54.721 12.4 5.8 7 9.9
2010-12-13 08:22:21 51°14.932 2°54.722 9 5.9 4 9.9
2010-12-13 08:22:27 51°14.942 2°54.722 5.2 5.9 1 10.6
2010-12-13 08:22:31 51°14.948 2°54.721 0.8 5.7 356 10.3
2010-12-13 08:22:36 51°14.956 2°54.72 356.8 5.7 353 10
2010-12-13 08:22:41 51°14.964 2°54.718 352.9 5.7 349 9.9
2010-12-13 08:22:46 51°14.971 2°54.716 349.7 5.7 349 9.9
2010-12-13 08:22:51 51°14.979 2°54.713 347.1 5.6 346 10
2010-12-13 08:22:56 51°14.987 2°54.709 344.9 5.6 345 9.9
2010-12-13 08:23:01 51°14.994 2°54.706 343.1 5.7 343 9.8
2010-12-13 08:23:06 51°15.002 2°54.702 341.7 5.7 342 9.9
2010-12-13 08:23:11 51°15.009 2°54.697 340 5.7 340 9.9
2010-12-13 08:23:16 51°15.017 2°54.693 338.9 5.8 340 10.1
2010-12-13 08:23:21 51°15.024 2°54.688 337.9 5.8 337 9.9
2010-12-13 08:23:26 51°15.031 2°54.683 337.1 5.8 338 9.8
2010-12-13 08:23:31 51°15.039 2°54.678 336.6 5.8 336 9.5
2010-12-13 08:23:36 51°15.046 2°54.674 336.7 5.8 339 9.5
2010-12-13 08:23:41 51°15.054 2°54.669 337.9 5.8 339 9.2
2010-12-13 08:23:46 51°15.061 2°54.665 339.2 5.8 340 9.1
2010-12-13 08:23:51 51°15.069 2°54.66 340.5 5.8 341 9.1
2010-12-13 08:23:56 51°15.076 2°54.657 341.9 5.7 342 9.1
2010-12-13 08:24:01 51°15.084 2°54.653 343.1 5.8 343 9.2
2010-12-13 08:24:06 51°15.092 2°54.65 344.2 5.9 346 9.4
2010-12-13 08:24:11 51°15.1 2°54.646 345.3 5.8 346 9.3
2010-12-13 08:24:16 51°15.108 2°54.644 346.4 5.8 347 9.1
2010-12-13 08:24:21 51°15.116 2°54.641 347.5 5.8 347 9
2010-12-13 08:24:26 51°15.123 2°54.638 348.5 5.8 349 8.8
2010-12-13 08:24:31 51°15.131 2°54.636 348.9 5.8 349 9.1
2010-12-13 08:24:36 51°15.139 2°54.634 349.5 5.7 350 9.4
2010-12-13 08:24:41 51°15.147 2°54.631 349.9 5.8 350 9.3
2010-12-13 08:24:46 51°15.155 2°54.629 350.4 5.9 350 9.3
2010-12-13 08:24:51 51°15.163 2°54.627 350.7 5.9 351 9.2
2010-12-13 08:24:56 51°15.171 2°54.625 351.1 5.9 352 9.3
2010-12-13 08:25:01 51°15.179 2°54.623 351.4 5.9 351 9.5
2010-12-13 08:25:06 51°15.187 2°54.621 351.5 5.9 351 9.4
2010-12-13 08:25:11 51°15.195 2°54.619 351.8 5.9 351 9.3
2010-12-13 08:25:16 51°15.204 2°54.617 351.4 6 351 9.4
2010-12-13 08:25:21 51°15.212 2°54.615 350.4 5.9 351 9.6
2010-12-13 08:25:26 51°15.22 2°54.613 349.7 6 350 9.5
2010-12-13 08:25:31 51°15.228 2°54.61 349.3 6 350 9.3
2010-12-13 08:25:36 51°15.236 2°54.608 348.7 5.9 350 9.7
2010-12-13 08:25:41 51°15.244 2°54.605 347.9 6 348 9.5
2010-12-13 08:25:46 51°15.252 2°54.603 347.7 5.9 349 9.3
2010-12-13 08:25:51 51°15.26 2°54.6 347 6 347 9.5
2010-12-13 08:25:56 51°15.269 2°54.597 346.4 6 349 9.5
2010-12-13 08:26:01 51°15.277 2°54.594 346.3 6 347 9.4
2010-12-13 08:26:06 51°15.285 2°54.592 345.8 6 348 9.6
2010-12-13 08:26:11 51°15.293 2°54.589 345.6 6 347 9.7
2010-12-13 08:26:16 51°15.301 2°54.586 345.6 6 347 9.6
2010-12-13 08:26:21 51°15.31 2°54.583 345.7 6 347 9.7
2010-12-13 08:26:26 51°15.318 2°54.581 345.8 6 348 10
2010-12-13 08:26:31 51°15.326 2°54.578 345.6 5.9 346 9.7
2010-12-13 08:26:36 51°15.334 2°54.575 345.5 6 348 10.1
2010-12-13 08:26:41 51°15.342 2°54.572 345.2 5.9 347 10.2
2010-12-13 08:26:46 51°15.35 2°54.569 345.4 5.9 346 10
2010-12-13 08:26:51 51°15.358 2°54.566 345.4 5.9 346 10.1
2010-12-13 08:26:56 51°15.365 2°54.563 345 5.8 347 10.2
2010-12-13 08:27:01 51°15.373 2°54.56 344.9 5.8 346 10
2010-12-13 08:27:06 51°15.381 2°54.557 344.9 5.9 347 9.9
2010-12-13 08:27:11 51°15.389 2°54.553 345 5.9 344 10.1
2010-12-13 08:27:16 51°15.397 2°54.55 344.8 5.9 344 9.9
2010-12-13 08:27:21 51°15.405 2°54.546 344.4 5.9 344 10
2010-12-13 08:27:26 51°15.413 2°54.542 343.7 5.9 343 10.1
2010-12-13 08:27:31 51°15.42 2°54.538 343.4 5.9 343 10.3
2010-12-13 08:27:36 51°15.428 2°54.535 343.3 5.9 343 10.1
2010-12-13 08:27:41 51°15.437 2°54.531 343.7 6.2 344 10.4
2010-12-13 08:27:46 51°15.445 2°54.527 344.1 6.5 344 10.2
2010-12-13 08:27:51 51°15.454 2°54.523 345.3 6.8 345 10.1
2010-12-13 08:27:56 51°15.464 2°54.519 346.4 7.2 346 10.3
2010-12-13 08:28:01 51°15.474 2°54.515 347.4 7.6 347 10.3
2010-12-13 08:28:06 51°15.485 2°54.511 348.2 7.9 348 10.2
2010-12-13 08:28:11 51°15.496 2°54.508 349.3 8.1 347 10.3
2010-12-13 08:28:15 51°15.505 2°54.504 349.7 8.4 349 10.5
2010-12-13 08:28:21 51°15.519 2°54.5 350.5 8.6 349 10.5
2010-12-13 08:28:27 51°15.533 2°54.496 351.2 8.7 350 10.3
2010-12-13 08:28:31 51°15.543 2°54.493 351.7 8.8 350 10.2
2010-12-13 08:28:36 51°15.555 2°54.49 352.1 9 351 10.4
2010-12-13 08:28:41 51°15.568 2°54.487 352.2 9.1 350 10.6
2010-12-13 08:28:47 51°15.583 2°54.483 352.4 9.2 350 10.5
2010-12-13 08:28:51 51°15.593 2°54.48 352.8 9.2 350 10.7
2010-12-13 08:28:56 51°15.606 2°54.476 351.7 9.3 346 10.6
2010-12-13 08:29:01 51°15.618 2°54.469 347.7 9.4 342 10.7
2010-12-13 08:29:07 51°15.633 2°54.461 344.6 9.4 342 10.9
2010-12-13 08:29:11 51°15.642 2°54.455 342.5 9.4 338 10.8
2010-12-13 08:29:16 51°15.654 2°54.447 340.4 9.4 337 10.7
2010-12-13 08:29:21 51°15.666 2°54.438 338.4 9.6 335 10.8
2010-12-13 08:29:26 51°15.678 2°54.429 336.9 9.7 334 11
2010-12-13 08:29:31 51°15.69 2°54.419 335.8 9.7 333 11
2010-12-13 08:29:36 51°15.702 2°54.409 334.7 9.8 333 11.1
2010-12-13 08:29:41 51°15.714 2°54.399 334 9.9 331 10.7
2010-12-13 08:29:46 51°15.726 2°54.389 333.1 9.8 332 10.5
2010-12-13 08:29:51 51°15.738 2°54.378 332.4 9.9 330 10.8
2010-12-13 08:29:56 51°15.75 2°54.367 332 9.9 331 10.8
2010-12-13 08:30:01 51°15.762 2°54.356 331.6 10 330 11
2010-12-13 08:30:06 51°15.774 2°54.345 331.4 10.1 331 11
2010-12-13 08:30:11 51°15.787 2°54.334 331.5 10.1 331 11.1
2010-12-13 08:30:16 51°15.8 2°54.325 333.2 10.1 335 11.1
2010-12-13 08:30:21 51°15.812 2°54.316 335 10 334 10.4
2010-12-13 08:30:26 51°15.825 2°54.308 337.5 10 340 11.1
2010-12-13 08:30:31 51°15.838 2°54.301 340.3 10 341 11.2
2010-12-13 08:30:36 51°15.851 2°54.296 343.5 10 346 11.6
2010-12-13 08:30:41 51°15.865 2°54.291 347 10 347 11.2
2010-12-13 08:30:46 51°15.879 2°54.287 349.4 10 351 11.4
2010-12-13 08:30:51 51°15.893 2°54.284 351.9 10 352 10.9
2010-12-13 08:30:56 51°15.906 2°54.281 353.7 10 354 11.1
2010-12-13 08:31:01 51°15.92 2°54.279 355.2 10.1 355 11.3
2010-12-13 08:31:06 51°15.934 2°54.277 356.5 10.1 357 11.7
2010-12-13 08:31:11 51°15.948 2°54.276 357.6 10 357 11.4
2010-12-13 08:31:16 51°15.962 2°54.276 359 10.1 359 11.4
2010-12-13 08:31:21 51°15.976 2°54.275 0.4 10.1 359 11.2
2010-12-13 08:31:26 51°15.99 2°54.275 0.7 10.1 359 11.4
2010-12-13 08:31:31 51°16.005 2°54.275 0.3 10.2 358 11.4
2010-12-13 08:31:36 51°16.019 2°54.274 359.5 10.2 357 11.1
2010-12-13 08:31:41 51°16.033 2°54.272 358.5 10.2 356 11.3
2010-12-13 08:31:46 51°16.047 2°54.271 357.3 10.2 355 11.4
2010-12-13 08:31:51 51°16.061 2°54.268 356 10.2 354 11.4
2010-12-13 08:31:56 51°16.075 2°54.265 354.4 10.3 353 11.6
2010-12-13 08:32:01 51°16.089 2°54.262 353.3 10.3 353 11.8
2010-12-13 08:32:06 51°16.104 2°54.259 352.6 10.3 351 11.7
2010-12-13 08:32:11 51°16.118 2°54.256 352.3 10.2 352 11.5
2010-12-13 08:32:16 51°16.132 2°54.253 352.6 10.3 352 11.7
2010-12-13 08:32:21 51°16.146 2°54.25 352.7 10.2 353 11.6
2010-12-13 08:32:26 51°16.159 2°54.248 352.5 9.8 354 11.8
2010-12-13 08:32:31 51°16.172 2°54.246 353.9 9.2 354 11.8
2010-12-13 08:32:36 51°16.184 2°54.244 354.8 8.8 355 11.4
2010-12-13 08:32:41 51°16.195 2°54.243 355.7 8.2 357 11.9
2010-12-13 08:32:46 51°16.206 2°54.242 356.3 7.8 358 11.8
2010-12-13 08:32:51 51°16.216 2°54.242 358.5 7.4 1 11.9
2010-12-13 08:32:56 51°16.226 2°54.243 0.7 7 2 11.8
2010-12-13 08:33:01 51°16.235 2°54.245 4.9 6.5 9 11.8
2010-12-13 08:33:06 51°16.243 2°54.248 10.2 6 14 11.7
2010-12-13 08:33:11 51°16.251 2°54.252 15.5 5.7 17 11.4
2010-12-13 08:33:16 51°16.258 2°54.256 20 5.2 23 11.7
2010-12-13 08:33:21 51°16.264 2°54.261 24.8 4.9 26 11.4
2010-12-13 08:33:26 51°16.269 2°54.267 30.5 4.7 32 11.6
2010-12-13 08:33:31 51°16.275 2°54.273 34.8 4.5 36 12
2010-12-13 08:33:36 51°16.279 2°54.279 38.2 4.2 40 11.7
2010-12-13 08:33:41 51°16.283 2°54.285 42.6 3.9 45 11.7
2010-12-13 08:33:46 51°16.287 2°54.291 48 3.7 50 11.9
2010-12-13 08:33:51 51°16.29 2°54.297 51.9 3.6 51 11.6
2010-12-13 08:33:56 51°16.292 2°54.303 55.6 3.4 56 11.8
2010-12-13 08:34:01 51°16.295 2°54.309 58.3 3.2 58 11.8
2010-12-13 08:34:06 51°16.297 2°54.315 62 3 60 11.7
2010-12-13 08:34:11 51°16.299 2°54.321 65.2 2.9 64 11.9
2010-12-13 08:34:16 51°16.301 2°54.327 66.8 2.8 65 11.8
2010-12-13 08:34:21 51°16.302 2°54.332 68.4 2.6 65 11.7
2010-12-13 08:34:26 51°16.303 2°54.337 69.9 2.4 66 12
2010-12-13 08:34:31 51°16.305 2°54.341 70.9 2.2 64 11.7
2010-12-13 08:34:36 51°16.306 2°54.345 70.9 2.1 58 11.6
2010-12-13 08:34:41 51°16.307 2°54.349 69.3 1.8 62 11.5
2010-12-13 08:34:46 51°16.308 2°54.352 68.4 1.6 63 12
2010-12-13 08:34:51 51°16.309 2°54.355 66.6 1.3 60 12
2010-12-13 08:34:56 51°16.31 2°54.357 65.5 1.1 40 11.4
2010-12-13 08:35:01 51°16.311 2°54.358 64 0.7 54 11.5
2010-12-13 08:35:06 51°16.312 2°54.359 63.2 0.7 62 11.8
2010-12-13 08:35:11 51°16.312 2°54.36 62.4 0.7 40 11.5
2010-12-13 08:35:16 51°16.313 2°54.362 61.9 0.7 48 11.8
2010-12-13 08:35:21 51°16.313 2°54.363 61 0.7 56 12.1
2010-12-13 08:35:26 51°16.314 2°54.364 60.3 0.6 54 11.7
2010-12-13 08:35:31 51°16.315 2°54.365 60 0.6 39 11.4
2010-12-13 08:35:36 51°16.315 2°54.366 60 0.5 78 11.9
2010-12-13 08:35:41 51°16.316 2°54.366 59.6 0.6 31 11.8
2010-12-13 08:35:46 51°16.316 2°54.367 59.4 0.4 44 11.6
2010-12-13 08:35:51 51°16.317 2°54.368 59.5 0.4 42 11.9
2010-12-13 08:35:56 51°16.317 2°54.368 59.1 0.4 33 11.9
2010-12-13 08:36:01 51°16.317 2°54.368 58.8 0.2 45 12.1
2010-12-13 08:36:06 51°16.318 2°54.368 58.1 0.4 350 11.6
2010-12-13 08:36:11 51°16.318 2°54.369 58.2 0.2 65 11.8
2010-12-13 08:36:16 51°16.319 2°54.368 57.6 0.4 339 11.6
2010-12-13 08:36:21 51°16.319 2°54.368 57.4 -999 317 11.7
2010-12-13 08:36:26 51°16.319 2°54.368 56.8 0.3 314 11.7
2010-12-13 08:36:31 51°16.319 2°54.367 56.3 0.2 286 11.5
2010-12-13 08:36:36 51°16.32 2°54.367 56.1 0.2 275 12
2010-12-13 08:36:41 51°16.32 2°54.366 55.4 0.5 304 11.4
2010-12-13 08:36:46 51°16.32 2°54.366 55.7 0.2 249 11.8
2010-12-13 08:36:51 51°16.32 2°54.365 54.6 0.7 309 11.5
2010-12-13 08:36:56 51°16.32 2°54.365 54.3 0.3 263 11.5
2010-12-13 08:37:01 51°16.32 2°54.363 53.8 0.3 263 12
2010-12-13 08:37:06 51°16.32 2°54.363 52.7 0.4 279 11.8
2010-12-13 08:37:11 51°16.32 2°54.362 52.4 0.5 295 11.8
2010-12-13 08:37:16 51°16.32 2°54.361 52.1 0.3 248 11.8
2010-12-13 08:37:21 51°16.32 2°54.36 51.5 0.3 266 11.9
2010-12-13 08:37:26 51°16.32 2°54.359 51.4 0.5 278 11.7
2010-12-13 08:37:31 51°16.32 2°54.358 50.7 0.5 269 11.8
2010-12-13 08:37:36 51°16.32 2°54.357 50.3 0.4 268 11.8
2010-12-13 08:37:41 51°16.32 2°54.356 49.6 0.5 276 11.9
2010-12-13 08:37:46 51°16.32 2°54.355 49.3 0.3 249 12
2010-12-13 08:37:51 51°16.321 2°54.353 48.9 0.7 283 11.4
2010-12-13 08:37:56 51°16.32 2°54.353 48.9 0.5 268 11.6
2010-12-13 08:38:01 51°16.321 2°54.352 48.2 0.5 265 11.7
2010-12-13 08:38:06 51°16.32 2°54.351 47.9 0.6 276 11.6
2010-12-13 08:38:11 51°16.321 2°54.349 47.3 0.5 265 11.8
2010-12-13 08:38:16 51°16.32 2°54.348 46.7 0.7 277 11.6
2010-12-13 08:38:21 51°16.321 2°54.347 46.9 0.5 258 11.7
2010-12-13 08:38:26 51°16.321 2°54.345 45.9 0.7 277 11.8
2010-12-13 08:38:31 51°16.321 2°54.344 45.4 0.5 269 11.8
2010-12-13 08:38:36 51°16.32 2°54.343 44.6 0.6 272 12
2010-12-13 08:38:41 51°16.32 2°54.341 43.9 0.5 252 11.8
2010-12-13 08:38:46 51°16.32 2°54.34 43.9 0.8 279 11.7
2010-12-13 08:38:51 51°16.32 2°54.339 43.1 0.5 233 12
2010-12-13 08:38:56 51°16.32 2°54.337 42.6 0.7 266 11.8
2010-12-13 08:39:01 51°16.32 2°54.337 42.1 0.7 252 11.5
2010-12-13 08:39:06 51°16.32 2°54.335 41.8 0.7 262 11.8
2010-12-13 08:39:11 51°16.319 2°54.334 41 0.7 256 11.6
2010-12-13 08:39:16 51°16.319 2°54.333 40.7 0.5 242 11.9
2010-12-13 08:39:21 51°16.319 2°54.331 39.9 0.8 270 11.5
2010-12-13 08:39:26 51°16.318 2°54.33 39.6 0.6 242 11.8
2010-12-13 08:39:31 51°16.318 2°54.328 39 0.7 263 11.8
2010-12-13 08:39:36 51°16.318 2°54.328 38.3 0.6 242 11.7
2010-12-13 08:39:41 51°16.318 2°54.326 37.9 0.6 249 11.6
2010-12-13 08:39:46 51°16.317 2°54.325 37.4 0.8 259 11.5
2010-12-13 08:39:51 51°16.317 2°54.323 36.9 0.6 250 11.9
2010-12-13 08:39:56 51°16.317 2°54.322 36.2 0.8 263 11.5
2010-12-13 08:40:01 51°16.316 2°54.321 35.7 0.6 230 11.8
2010-12-13 08:40:06 51°16.316 2°54.319 35.3 0.7 250 11.7
2010-12-13 08:40:11 51°16.315 2°54.318 34.7 0.7 234 11.5
2010-12-13 08:40:16 51°16.315 2°54.317 34.9 0.6 216 12
2010-12-13 08:40:21 51°16.314 2°54.315 33.9 1.1 262 11.4
2010-12-13 08:40:26 51°16.314 2°54.314 34.3 0.7 201 11.9
2010-12-13 08:40:31 51°16.313 2°54.312 33.4 0.9 251 11.6
2010-12-13 08:40:36 51°16.313 2°54.311 33.2 0.7 196 11.9
2010-12-13 08:40:41 51°16.313 2°54.309 32.7 1.1 258 11.5
2010-12-13 08:40:46 51°16.312 2°54.309 32.3 0.8 224 11.3
2010-12-13 08:40:51 51°16.311 2°54.307 32.7 0.7 240 11.7
2010-12-13 08:40:56 51°16.311 2°54.306 31.6 0.6 217 11.8
2010-12-13 08:41:01 51°16.31 2°54.304 31.3 0.8 240 11.7
2010-12-13 08:41:06 51°16.309 2°54.303 31.3 0.7 227 11.9
2010-12-13 08:41:11 51°16.309 2°54.301 31 0.8 242 11.6
2010-12-13 08:41:16 51°16.308 2°54.3 31.3 0.7 229 11.5
2010-12-13 08:41:21 51°16.308 2°54.298 30.7 0.9 243 11.6
2010-12-13 08:41:26 51°16.307 2°54.297 30.5 0.8 232 11.6
2010-12-13 08:41:31 51°16.306 2°54.296 30.4 0.8 240 11.7
2010-12-13 08:41:36 51°16.305 2°54.294 30.1 0.8 232 11.8
2010-12-13 08:41:41 51°16.305 2°54.293 30.4 1 243 11.3
2010-12-13 08:41:46 51°16.304 2°54.292 30.3 0.8 224 11.4
2010-12-13 08:41:51 51°16.303 2°54.29 30.2 0.8 234 11.7
2010-12-13 08:41:56 51°16.302 2°54.289 29.9 0.8 230 11.6
2010-12-13 08:42:01 51°16.302 2°54.287 30.3 0.9 233 11.7
2010-12-13 08:42:06 51°16.301 2°54.286 30.4 0.8 225 11.9
2010-12-13 08:42:11 51°16.3 2°54.284 30.6 0.9 226 11.8
2010-12-13 08:42:16 51°16.299 2°54.282 30.9 0.9 235 11.5
2010-12-13 08:42:21 51°16.298 2°54.281 31.4 0.9 221 11.8
2010-12-13 08:42:26 51°16.298 2°54.279 31.3 0.9 232 11.8
2010-12-13 08:42:31 51°16.297 2°54.278 31.7 0.9 229 11.6
2010-12-13 08:42:36 51°16.296 2°54.276 31.7 1 230 11.8
2010-12-13 08:42:41 51°16.295 2°54.275 31.7 0.9 233 11.6
2010-12-13 08:42:46 51°16.294 2°54.273 32 1 225 11.7
2010-12-13 08:42:51 51°16.294 2°54.271 32.1 1 247 11.5
2010-12-13 08:42:56 51°16.292 2°54.27 32.2 1 231 11.8
2010-12-13 08:43:01 51°16.292 2°54.268 32.2 1 234 11.6
2010-12-13 08:43:06 51°16.291 2°54.267 32.7 1 226 11.7
2010-12-13 08:43:11 51°16.29 2°54.265 32.7 1.1 239 11.6
2010-12-13 08:43:16 51°16.289 2°54.264 32.9 1 230 11.5
2010-12-13 08:43:21 51°16.288 2°54.262 32.9 1 233 11.7
2010-12-13 08:43:26 51°16.287 2°54.26 33.2 0.9 222 11.8
2010-12-13 08:43:31 51°16.287 2°54.258 32.9 1 231 11.5
2010-12-13 08:43:36 51°16.286 2°54.257 33.5 0.9 223 11.5
2010-12-13 08:43:41 51°16.285 2°54.255 33.5 1.2 243 11.5
2010-12-13 08:43:46 51°16.284 2°54.253 33.4 1 222 11.4
2010-12-13 08:43:51 51°16.283 2°54.252 33.6 1 231 11.4
2010-12-13 08:43:56 51°16.282 2°54.25 33.3 0.9 222 11.7
2010-12-13 08:44:01 51°16.281 2°54.248 33.3 1.1 236 11.6
2010-12-13 08:44:06 51°16.281 2°54.246 33.2 1 230 11.5
2010-12-13 08:44:11 51°16.279 2°54.244 33.5 1 230 11.6
2010-12-13 08:44:16 51°16.279 2°54.242 33.3 1 234 11.5
2010-12-13 08:44:21 51°16.278 2°54.241 33.3 1.1 235 11.6
2010-12-13 08:44:26 51°16.277 2°54.239 33.5 1 210 12
2010-12-13 08:44:31 51°16.276 2°54.237 33.4 1.2 237 11.4
2010-12-13 08:44:36 51°16.275 2°54.236 34.1 1 221 11.5
2010-12-13 08:44:41 51°16.274 2°54.234 34.4 1 226 11.9
2010-12-13 08:44:46 51°16.273 2°54.232 33.9 1.1 240 11.5
2010-12-13 08:44:51 51°16.272 2°54.231 34.8 1 225 11.8
2010-12-13 08:44:56 51°16.271 2°54.228 34.2 1.1 241 11.4
2010-12-13 08:45:01 51°16.27 2°54.227 34.9 1 213 11.7
2010-12-13 08:45:06 51°16.269 2°54.225 34.6 1.2 245 11.5
2010-12-13 08:45:11 51°16.268 2°54.223 34.9 1 219 11.8
2010-12-13 08:45:16 51°16.268 2°54.221 34.8 1.3 251 11.3
2010-12-13 08:45:21 51°16.266 2°54.22 35.3 1 215 11.8
2010-12-13 08:45:26 51°16.266 2°54.217 35.1 1.1 244 11.6
2010-12-13 08:45:31 51°16.265 2°54.216 35.1 1 215 11.8
2010-12-13 08:45:36 51°16.264 2°54.213 35 1.3 254 11.4
2010-12-13 08:45:41 51°16.263 2°54.212 35.2 1 214 11.7
2010-12-13 08:45:46 51°16.262 2°54.209 35.1 1.1 245 11.6
2010-12-13 08:45:51 51°16.261 2°54.208 34.9 1 218 11.6
2010-12-13 08:45:56 51°16.26 2°54.206 34.9 1.1 237 11.7
2010-12-13 08:46:01 51°16.259 2°54.204 34.5 1 227 11.5
2010-12-13 08:46:07 51°16.258 2°54.202 34.6 1.1 239 11.6
2010-12-13 08:46:11 51°16.258 2°54.201 34.4 1 231 11.7
2010-12-13 08:46:16 51°16.257 2°54.199 34.4 1.1 235 11.7
2010-12-13 08:46:21 51°16.256 2°54.197 34.2 1 216 11.9
2010-12-13 08:46:27 51°16.255 2°54.194 34.2 1.3 250 11.4
2010-12-13 08:46:31 51°16.254 2°54.193 34.3 1 215 11.6
2010-12-13 08:46:35 51°16.253 2°54.191 34.1 1.2 249 11.4
2010-12-13 08:46:41 51°16.252 2°54.189 34.2 1 215 11.7
2010-12-13 08:46:46 51°16.251 2°54.187 33.9 1.2 243 11.6
2010-12-13 08:46:51 51°16.25 2°54.186 33.9 1 222 11.4
2010-12-13 08:46:56 51°16.249 2°54.184 33.9 1.1 235 11.6
2010-12-13 08:47:01 51°16.248 2°54.182 33.6 1.1 232 11.7
2010-12-13 08:47:06 51°16.247 2°54.18 33.5 1.2 238 11.8
2010-12-13 08:47:11 51°16.246 2°54.178 33.5 1 234 11.8
2010-12-13 08:47:16 51°16.245 2°54.176 33.1 1.2 240 11.5
2010-12-13 08:47:21 51°16.244 2°54.174 33 1 222 11.7
2010-12-13 08:47:26 51°16.243 2°54.172 32.9 1.1 226 11.8
2010-12-13 08:47:31 51°16.242 2°54.17 32.1 1.2 235 11.5
2010-12-13 08:47:36 51°16.241 2°54.168 32.3 1.2 233 11.3
2010-12-13 08:47:41 51°16.24 2°54.167 32 1.1 223 11.6
2010-12-13 08:47:46 51°16.239 2°54.164 31.9 1.1 231 11.6
2010-12-13 08:47:51 51°16.238 2°54.163 31.4 1.1 223 11.5
2010-12-13 08:47:56 51°16.237 2°54.161 31.8 1.1 226 11.5
2010-12-13 08:48:01 51°16.236 2°54.159 31.5 1.1 227 11.6
2010-12-13 08:48:06 51°16.235 2°54.157 31.2 1.1 236 11.5
2010-12-13 08:48:11 51°16.234 2°54.156 31.3 1 222 11.8
2010-12-13 08:48:16 51°16.233 2°54.153 30.7 1.2 237 11.5
2010-12-13 08:48:21 51°16.232 2°54.152 30.6 1.1 226 11.5
2010-12-13 08:48:26 51°16.231 2°54.15 30.3 1.1 232 11.5
2010-12-13 08:48:31 51°16.23 2°54.148 30.1 1.1 231 11.4
2010-12-13 08:48:36 51°16.229 2°54.146 29.8 1.1 229 11.8
2010-12-13 08:48:41 51°16.228 2°54.144 29.1 1.2 243 11.3
2010-12-13 08:48:46 51°16.227 2°54.143 29.1 1 205 12
2010-12-13 08:48:51 51°16.227 2°54.14 28.5 1.2 247 11.2
2010-12-13 08:48:56 51°16.225 2°54.14 28.7 0.9 205 11.5
2010-12-13 08:49:01 51°16.225 2°54.137 28.1 1.1 241 11.4
2010-12-13 08:49:06 51°16.224 2°54.136 28.1 0.9 219 11.5
2010-12-13 08:49:11 51°16.223 2°54.134 27.8 1 234 11.7
2010-12-13 08:49:16 51°16.222 2°54.133 27.5 0.9 225 11.5
2010-12-13 08:49:21 51°16.221 2°54.131 27.2 0.9 220 11.9
2010-12-13 08:49:26 51°16.22 2°54.13 26.8 1 227 11.6
2010-12-13 08:49:31 51°16.219 2°54.129 26.2 0.9 215 11.4
2010-12-13 08:49:35 51°16.218 2°54.127 26.1 1 221 11.5
2010-12-13 08:49:41 51°16.217 2°54.126 25.7 0.9 221 11.4
2010-12-13 08:49:46 51°16.216 2°54.125 25.6 0.9 221 11.6
2010-12-13 08:49:51 51°16.215 2°54.123 25.7 0.9 214 11.5
2010-12-13 08:49:56 51°16.214 2°54.122 26.2 0.9 225 11.6
2010-12-13 08:50:01 51°16.213 2°54.121 26.2 0.9 222 11.6
2010-12-13 08:50:06 51°16.212 2°54.12 26.9 0.8 221 11.5
2010-12-13 08:50:11 51°16.211 2°54.118 27.6 0.9 226 11.8
2010-12-13 08:50:16 51°16.21 2°54.117 27.4 1 236 11.5
2010-12-13 08:50:21 51°16.21 2°54.116 28.4 0.8 208 11.6
2010-12-13 08:50:26 51°16.209 2°54.114 28.5 1 241 11.4
2010-12-13 08:50:31 51°16.208 2°54.113 29.3 0.8 209 11.7
2010-12-13 08:50:35 51°16.207 2°54.112 29.5 1.1 251 11.4
2010-12-13 08:50:41 51°16.206 2°54.111 30 0.8 203 11.5
2010-12-13 08:50:47 51°16.205 2°54.108 30.5 0.9 240 11.6
2010-12-13 08:50:51 51°16.204 2°54.107 30.2 0.9 223 11.4
2010-12-13 08:50:56 51°16.204 2°54.106 30.7 0.9 229 11.6
2010-12-13 08:51:01 51°16.203 2°54.104 30.6 0.9 230 11.6
2010-12-13 08:51:06 51°16.202 2°54.103 30.9 0.9 239 11.7
2010-12-13 08:51:11 51°16.202 2°54.101 30.6 0.9 239 11.7
2010-12-13 08:51:16 51°16.201 2°54.1 30.6 1 234 11.4
2010-12-13 08:51:21 51°16.2 2°54.099 30.7 0.8 224 11.4
2010-12-13 08:51:26 51°16.199 2°54.097 30.3 0.8 223 11.8
2010-12-13 08:51:31 51°16.199 2°54.095 29.7 0.9 235 11.7
2010-12-13 08:51:36 51°16.198 2°54.094 29.6 0.9 233 11.5
2010-12-13 08:51:41 51°16.197 2°54.093 30 0.8 218 11.8
2010-12-13 08:51:46 51°16.196 2°54.091 29.8 0.9 239 11.8
2010-12-13 08:51:51 51°16.195 2°54.09 29.7 0.9 218 11.6
2010-12-13 08:51:56 51°16.195 2°54.088 30 0.9 235 11.6
2010-12-13 08:52:01 51°16.194 2°54.087 29.8 0.9 231 11.5
2010-12-13 08:52:06 51°16.193 2°54.085 30 1 235 11.3
2010-12-13 08:52:11 51°16.192 2°54.084 30 0.8 223 11.6
2010-12-13 08:52:16 51°16.192 2°54.082 29.8 0.9 231 11.5
2010-12-13 08:52:21 51°16.191 2°54.081 29.8 1 238 11.2
2010-12-13 08:52:26 51°16.19 2°54.079 29.6 0.8 219 11.5
2010-12-13 08:52:31 51°16.189 2°54.077 29.5 0.9 239 11.5
2010-12-13 08:52:36 51°16.188 2°54.076 29.6 0.8 218 11.4
2010-12-13 08:52:41 51°16.188 2°54.074 29.6 0.9 235 11.7
2010-12-13 08:52:46 51°16.187 2°54.073 29.4 1 241 11.1
2010-12-13 08:52:51 51°16.186 2°54.072 30.2 0.8 228 11.5
2010-12-13 08:52:56 51°16.185 2°54.07 29.6 0.9 230 11.4
2010-12-13 08:53:01 51°16.185 2°54.068 29.8 0.9 237 11.6
2010-12-13 08:53:06 51°16.184 2°54.066 29.6 0.9 232 11.5
2010-12-13 08:53:11 51°16.183 2°54.065 29.7 0.9 235 11.5
2010-12-13 08:53:16 51°16.183 2°54.063 29.5 0.9 235 11.5
2010-12-13 08:53:21 51°16.182 2°54.062 29.3 1 243 11.2
2010-12-13 08:53:26 51°16.181 2°54.06 29.4 0.8 225 11.6
2010-12-13 08:53:31 51°16.18 2°54.059 29 0.9 237 11.6
2010-12-13 08:53:36 51°16.179 2°54.057 29.1 0.9 217 11.7
2010-12-13 08:53:41 51°16.179 2°54.055 28.8 1 237 11.5
2010-12-13 08:53:46 51°16.178 2°54.054 28.8 1 246 11.2
2010-12-13 08:53:51 51°16.177 2°54.053 29.1 0.8 207 12
2010-12-13 08:53:56 51°16.177 2°54.051 28.3 1.2 254 11.5
2010-12-13 08:54:01 51°16.176 2°54.05 28.9 0.8 211 11.6
2010-12-13 08:54:06 51°16.175 2°54.047 28.4 1 248 11.5
2010-12-13 08:54:11 51°16.174 2°54.047 28.3 0.7 218 11.5
2010-12-13 08:54:16 51°16.174 2°54.045 28.1 0.7 265 11.4
2010-12-13 08:54:21 51°16.174 2°54.044 27.6 0.2 288 11.7
2010-12-13 08:54:26 51°16.175 2°54.044 27.8 0.6 334 11.5
2010-12-13 08:54:31 51°16.176 2°54.044 28.5 0.6 24 11.7
2010-12-13 08:54:36 51°16.177 2°54.044 29.7 1.2 5 11.5
2010-12-13 08:54:41 51°16.179 2°54.046 30.6 1.3 29 11.5
2010-12-13 08:54:46 51°16.181 2°54.046 32.3 1.7 15 11.4
2010-12-13 08:54:51 51°16.183 2°54.049 34.1 1.9 40 11.9
2010-12-13 08:54:56 51°16.187 2°54.05 35.8 2.3 20 11.5
2010-12-13 08:55:01 51°16.189 2°54.054 38.1 2.5 33 11.5
2010-12-13 08:55:06 51°16.192 2°54.057 40.5 2.9 36 11.5
2010-12-13 08:55:11 51°16.195 2°54.062 42.8 3 42 11.7
2010-12-13 08:55:16 51°16.199 2°54.067 45 3.3 40 11.4
2010-12-13 08:55:21 51°16.202 2°54.073 48 3.6 53 11.8
2010-12-13 08:55:26 51°16.206 2°54.079 49.7 3.9 47 11.6
2010-12-13 08:55:31 51°16.209 2°54.086 52.3 3.9 55 11.6
2010-12-13 08:55:35 51°16.212 2°54.091 53.6 4.4 50 11.6
2010-12-13 08:55:41 51°16.216 2°54.101 54.6 4.7 54 11.5
2010-12-13 08:55:47 51°16.222 2°54.112 55 5.1 54 11.5
2010-12-13 08:55:51 51°16.225 2°54.119 54.9 5.3 51 11.3
2010-12-13 08:55:56 51°16.23 2°54.129 54.9 5.6 55 11.5
2010-12-13 08:56:01 51°16.235 2°54.14 55.7 5.9 53 11.6
2010-12-13 08:56:06 51°16.239 2°54.151 55.9 6.2 58 11.6
2010-12-13 08:56:11 51°16.245 2°54.163 57.4 6.4 54 11.2
2010-12-13 08:56:16 51°16.249 2°54.176 58.9 6.6 62 11.5
2010-12-13 08:56:21 51°16.254 2°54.188 61 6.7 62 11.4
2010-12-13 08:56:26 51°16.257 2°54.203 63.8 6.9 68 11.6
2010-12-13 08:56:31 51°16.261 2°54.217 66.9 7 66 11.5
2010-12-13 08:56:36 51°16.263 2°54.232 69.8 7 74 11.3
2010-12-13 08:56:41 51°16.266 2°54.246 73.4 6.7 76 11.4
2010-12-13 08:56:46 51°16.267 2°54.26 77 6.2 82 11.5
2010-12-13 08:56:51 51°16.269 2°54.272 79.9 5.8 80 11.3
2010-12-13 08:56:56 51°16.269 2°54.284 82.5 5.4 86 11.5
2010-12-13 08:57:01 51°16.27 2°54.295 84.8 5 86 11.4
2010-12-13 08:57:06 51°16.27 2°54.306 87.7 4.6 92 11.6
2010-12-13 08:57:11 51°16.27 2°54.316 90.5 4.4 91 11.3
2010-12-13 08:57:16 51°16.269 2°54.325 93.5 4.1 97 11.4
2010-12-13 08:57:21 51°16.268 2°54.333 96.2 3.7 100 11.6
2010-12-13 08:57:26 51°16.267 2°54.34 98.8 3.3 101 11.3
2010-12-13 08:57:31 51°16.266 2°54.346 101.5 2.9 107 11.6
2010-12-13 08:57:36 51°16.265 2°54.352 104.3 2.6 107 11.6
2010-12-13 08:57:41 51°16.264 2°54.357 107.1 2.4 112 11.5
2010-12-13 08:57:46 51°16.263 2°54.362 109.3 2.3 109 11.4
2010-12-13 08:57:51 51°16.262 2°54.366 110.6 2.2 116 11.5
2010-12-13 08:57:56 51°16.26 2°54.37 112.5 2.1 110 11.3
2010-12-13 08:58:01 51°16.259 2°54.374 113.1 1.9 126 11.6
2010-12-13 08:58:06 51°16.258 2°54.377 114.2 1.6 118 11.2
2010-12-13 08:58:11 51°16.257 2°54.38 116.1 1.5 127 11.5
2010-12-13 08:58:16 51°16.256 2°54.382 117 1.1 124 11.2
2010-12-13 08:58:21 51°16.255 2°54.383 119.1 1.1 134 11.6
2010-12-13 08:58:26 51°16.254 2°54.385 120.5 1 136 11.2
2010-12-13 08:58:31 51°16.253 2°54.387 123.8 1 136 11.5
2010-12-13 08:58:35 51°16.253 2°54.388 124.9 0.9 157 11.7
2010-12-13 08:58:41 51°16.251 2°54.389 127.8 0.8 137 11.4
2010-12-13 08:58:46 51°16.251 2°54.39 130 0.8 155 11.2
2010-12-13 08:58:51 51°16.25 2°54.391 132.2 0.8 144 11.7
2010-12-13 08:58:56 51°16.249 2°54.391 134 0.8 158 11.2
2010-12-13 08:59:01 51°16.248 2°54.392 136.1 0.8 149 11.7
2010-12-13 08:59:06 51°16.247 2°54.393 137.6 0.8 172 11.3
2010-12-13 08:59:11 51°16.246 2°54.393 139.7 0.8 157 11.4
2010-12-13 08:59:16 51°16.245 2°54.394 140.9 0.7 172 11.3
2010-12-13 08:59:21 51°16.244 2°54.394 143.2 0.7 154 11.4
2010-12-13 08:59:26 51°16.243 2°54.394 144.4 0.8 180 11.4
2010-12-13 08:59:31 51°16.242 2°54.394 145.9 0.8 170 11.6
2010-12-13 08:59:36 51°16.24 2°54.394 147.3 0.8 186 11.4
2010-12-13 08:59:41 51°16.239 2°54.394 148.9 0.8 181 11.8
2010-12-13 08:59:46 51°16.238 2°54.394 150.1 0.8 182 11.2
2010-12-13 08:59:51 51°16.237 2°54.394 151.2 0.8 189 11.6
2010-12-13 08:59:56 51°16.236 2°54.394 152.2 0.7 176 11.4
2010-12-13 09:00:01 51°16.235 2°54.394 153.2 0.8 183 11.5
2010-12-13 09:00:06 51°16.234 2°54.394 154.1 0.8 191 11.5
2010-12-13 09:00:11 51°16.233 2°54.393 155.1 0.8 192 11.3
2010-12-13 09:00:16 51°16.232 2°54.393 156.2 0.8 186 11.5
2010-12-13 09:00:21 51°16.231 2°54.392 157.2 0.8 198 11.4
2010-12-13 09:00:26 51°16.23 2°54.392 158.2 0.8 195 11.6
2010-12-13 09:00:31 51°16.229 2°54.392 159.2 0.8 201 11.2
2010-12-13 09:00:36 51°16.228 2°54.391 159.9 0.9 201 11.6
2010-12-13 09:00:41 51°16.227 2°54.39 160.9 0.8 195 11.3
2010-12-13 09:00:46 51°16.226 2°54.39 161.3 0.9 205 11.5
2010-12-13 09:00:51 51°16.225 2°54.389 162.3 0.8 199 11.3
2010-12-13 09:00:56 51°16.224 2°54.389 162.7 0.9 212 11.4
2010-12-13 09:01:01 51°16.223 2°54.388 163.4 0.7 183 11.2
2010-12-13 09:01:06 51°16.222 2°54.387 163.4 1 214 11.5
2010-12-13 09:01:11 51°16.22 2°54.387 164 0.8 196 11.2
2010-12-13 09:01:15 51°16.22 2°54.386 164.2 0.9 214 11.5
2010-12-13 09:01:21 51°16.218 2°54.385 164.6 0.7 185 11.6
2010-12-13 09:01:26 51°16.218 2°54.385 164.3 0.9 215 11.3
2010-12-13 09:01:31 51°16.216 2°54.384 164.8 0.7 191 11.4
2010-12-13 09:01:35 51°16.216 2°54.383 164.6 0.8 209 11.4
2010-12-13 09:01:41 51°16.215 2°54.383 164.7 0.7 202 11.2
2010-12-13 09:01:46 51°16.214 2°54.382 165 0.8 206 11.5
2010-12-13 09:01:51 51°16.213 2°54.381 164.9 0.8 206 11.3
2010-12-13 09:01:56 51°16.212 2°54.38 165.3 0.7 204 11.3
2010-12-13 09:02:01 51°16.211 2°54.38 165.5 0.7 204 11.3
2010-12-13 09:02:06 51°16.21 2°54.379 165.5 0.8 213 11.5
2010-12-13 09:02:11 51°16.209 2°54.378 165.6 0.7 208 11.1
2010-12-13 09:02:16 51°16.208 2°54.377 165.6 0.8 211 11.4
2010-12-13 09:02:21 51°16.207 2°54.376 165.6 0.8 216 11.2
2010-12-13 09:02:26 51°16.206 2°54.375 165.8 0.7 207 11.5
2010-12-13 09:02:31 51°16.206 2°54.374 166 0.8 220 11.4
2010-12-13 09:02:36 51°16.205 2°54.373 166.1 0.7 210 11.3
2010-12-13 09:02:41 51°16.204 2°54.372 166.3 0.8 215 11.4
2010-12-13 09:02:46 51°16.203 2°54.371 166.3 0.8 218 11.3
2010-12-13 09:02:51 51°16.202 2°54.371 166.6 0.7 214 11.3
2010-12-13 09:02:56 51°16.201 2°54.37 166.7 0.6 209 11.3
2010-12-13 09:03:01 51°16.2 2°54.369 166.6 0.6 204 11.4
2010-12-13 09:03:06 51°16.2 2°54.369 166 0.7 216 11.1
2010-12-13 09:03:11 51°16.199 2°54.368 165.7 0.7 202 11.5
2010-12-13 09:03:16 51°16.198 2°54.367 165.4 0.5 205 11.1
2010-12-13 09:03:21 51°16.198 2°54.367 165 0.6 211 11.4
2010-12-13 09:03:26 51°16.197 2°54.366 164.8 0.6 208 11.4
2010-12-13 09:03:31 51°16.196 2°54.365 164.7 0.6 213 11.2
2010-12-13 09:03:35 51°16.196 2°54.365 164.5 0.6 204 11.3
2010-12-13 09:03:41 51°16.195 2°54.364 164.2 0.7 223 11.2
2010-12-13 09:03:46 51°16.194 2°54.363 164.5 0.6 215 11.3
2010-12-13 09:03:51 51°16.193 2°54.362 164.3 0.7 219 11.2
2010-12-13 09:03:56 51°16.193 2°54.361 164.5 0.5 213 11.2
2010-12-13 09:04:01 51°16.192 2°54.36 164.5 0.6 222 11.4
2010-12-13 09:04:06 51°16.191 2°54.36 164.7 0.5 222 11.4
2010-12-13 09:04:11 51°16.191 2°54.358 164.7 0.7 226 11.4
2010-12-13 09:04:16 51°16.19 2°54.358 164.9 0.6 218 11.3
2010-12-13 09:04:21 51°16.189 2°54.356 165.4 0.6 227 11.3
2010-12-13 09:04:26 51°16.188 2°54.355 165.6 0.6 217 11.3
2010-12-13 09:04:31 51°16.188 2°54.354 165.6 0.7 228 11.1
2010-12-13 09:04:36 51°16.187 2°54.353 165.8 0.6 214 11.4
2010-12-13 09:04:41 51°16.186 2°54.352 166 0.7 231 11.2
2010-12-13 09:04:46 51°16.186 2°54.351 166 0.6 220 11.4
2010-12-13 09:04:51 51°16.185 2°54.35 166.4 0.7 230 11.1
2010-12-13 09:04:56 51°16.184 2°54.349 166.7 0.6 219 11.5
2010-12-13 09:05:01 51°16.184 2°54.348 166.6 0.8 231 11.3
2010-12-13 09:05:06 51°16.183 2°54.347 167 0.7 226 11.3
2010-12-13 09:05:11 51°16.182 2°54.346 167.2 0.8 227 11.3
2010-12-13 09:05:16 51°16.182 2°54.345 167.5 0.6 222 11.3
2010-12-13 09:05:21 51°16.181 2°54.344 167.5 0.7 226 11.4
2010-12-13 09:05:26 51°16.181 2°54.343 167.8 0.6 226 11.4
2010-12-13 09:05:31 51°16.18 2°54.342 167.9 0.8 231 11.1
2010-12-13 09:05:36 51°16.179 2°54.341 168.1 0.7 223 11.2
2010-12-13 09:05:41 51°16.179 2°54.339 168.4 0.7 226 11.3
2010-12-13 09:05:46 51°16.178 2°54.339 168.5 0.6 227 11.3
2010-12-13 09:05:51 51°16.177 2°54.337 168.8 0.8 231 11.2
2010-12-13 09:05:56 51°16.177 2°54.337 168.6 0.7 229 11.4
2010-12-13 09:06:01 51°16.176 2°54.335 168.8 0.6 224 11.2
2010-12-13 09:06:06 51°16.175 2°54.335 169 0.8 233 11.4
2010-12-13 09:06:11 51°16.175 2°54.333 169.1 0.6 225 11.2
2010-12-13 09:06:16 51°16.174 2°54.332 168.9 0.8 231 11.2
2010-12-13 09:06:21 51°16.174 2°54.331 169.2 0.6 215 11.4
2010-12-13 09:06:26 51°16.173 2°54.33 169.2 0.9 234 11.2
2010-12-13 09:06:31 51°16.172 2°54.329 169.6 0.6 220 11.4
2010-12-13 09:06:36 51°16.172 2°54.328 169.8 0.8 234 11.2
2010-12-13 09:06:41 51°16.171 2°54.327 169.8 0.7 229 11.3
2010-12-13 09:06:46 51°16.171 2°54.326 170.2 0.7 231 11.1
2010-12-13 09:06:51 51°16.17 2°54.325 170.3 0.7 223 11.2
2010-12-13 09:06:56 51°16.169 2°54.323 170.7 0.7 228 11.2
2010-12-13 09:07:01 51°16.169 2°54.322 170.5 0.7 234 11.4
2010-12-13 09:07:06 51°16.168 2°54.321 170.7 0.6 226 11.3
2010-12-13 09:07:11 51°16.168 2°54.32 170.8 0.7 233 11.3
2010-12-13 09:07:16 51°16.167 2°54.319 170.8 0.6 227 11.2
2010-12-13 09:07:21 51°16.166 2°54.318 171.1 0.7 232 11.3
2010-12-13 09:07:26 51°16.166 2°54.316 171 0.7 225 11.2
2010-12-13 09:07:31 51°16.165 2°54.315 171.2 0.7 227 11.2
2010-12-13 09:07:35 51°16.165 2°54.314 171.3 0.6 224 11.3
2010-12-13 09:07:41 51°16.164 2°54.313 171.2 0.8 237 11.1
2010-12-13 09:07:46 51°16.163 2°54.312 171.3 0.7 222 11.3
2010-12-13 09:07:51 51°16.163 2°54.31 171.2 0.8 234 11.2
2010-12-13 09:07:56 51°16.162 2°54.309 171.4 0.7 222 11.3
2010-12-13 09:08:01 51°16.161 2°54.308 171.1 0.8 237 11.3
2010-12-13 09:08:06 51°16.161 2°54.307 171.3 0.6 219 11.4
2010-12-13 09:08:11 51°16.16 2°54.305 171.2 0.9 236 11
2010-12-13 09:08:16 51°16.16 2°54.304 171.4 0.7 221 11.4
2010-12-13 09:08:21 51°16.159 2°54.303 171 0.8 234 11.1
2010-12-13 09:08:26 51°16.158 2°54.302 171.2 0.7 228 11.2
2010-12-13 09:08:31 51°16.158 2°54.3 170.9 0.8 236 11.4
2010-12-13 09:08:36 51°16.157 2°54.299 171 0.7 226 11
2010-12-13 09:08:41 51°16.156 2°54.298 171 0.8 228 11.3
2010-12-13 09:08:46 51°16.156 2°54.297 170.7 0.7 230 11.3
2010-12-13 09:08:51 51°16.155 2°54.295 170.7 0.8 237 11.1
2010-12-13 09:08:56 51°16.154 2°54.294 170.7 0.7 221 11.2
2010-12-13 09:09:01 51°16.154 2°54.293 170.6 0.7 231 11.2
2010-12-13 09:09:06 51°16.153 2°54.292 170.4 0.8 232 11.2
2010-12-13 09:09:11 51°16.152 2°54.29 170.6 0.8 229 11.2
2010-12-13 09:09:16 51°16.152 2°54.289 170.4 0.7 231 11.1
2010-12-13 09:09:21 51°16.151 2°54.288 170.4 0.8 225 11.3
2010-12-13 09:09:26 51°16.15 2°54.287 170.5 0.8 214 11.2
2010-12-13 09:09:31 51°16.149 2°54.285 169.3 1.1 211 11.2
2010-12-13 09:09:36 51°16.147 2°54.285 168.1 1.2 187 11
2010-12-13 09:09:41 51°16.145 2°54.285 164.8 1.6 180 11.3
2010-12-13 09:09:46 51°16.143 2°54.286 160.2 1.7 168 11.2
2010-12-13 09:09:51 51°16.14 2°54.287 153.5 2 166 10.9
2010-12-13 09:09:56 51°16.137 2°54.289 148.9 2.2 154 11.4
2010-12-13 09:10:01 51°16.135 2°54.291 142.2 2.3 149 11.1
2010-12-13 09:10:06 51°16.132 2°54.295 135.9 2.5 137 11.2
2010-12-13 09:10:11 51°16.13 2°54.299 129.3 2.6 135 11.1
2010-12-13 09:10:16 51°16.128 2°54.304 121.3 2.8 121 11.1
2010-12-13 09:10:21 51°16.125 2°54.31 116 2.9 116 11.2
2010-12-13 09:10:26 51°16.125 2°54.316 109.1 3 107 11
2010-12-13 09:10:31 51°16.124 2°54.323 103.1 3.1 104 11.1
2010-12-13 09:10:36 51°16.124 2°54.33 93.4 3.3 96 11.3
2010-12-13 09:10:41 51°16.124 2°54.337 89.4 3.3 79 11.2
2010-12-13 09:10:46 51°16.125 2°54.345 81.6 3.5 76 11.1
2010-12-13 09:10:51 51°16.127 2°54.352 74.7 3.6 68 11.2
2010-12-13 09:10:56 51°16.13 2°54.359 66.9 3.7 59 10.9
2010-12-13 09:11:01 51°16.133 2°54.366 58.8 3.7 51 11.3
2010-12-13 09:11:06 51°16.137 2°54.371 52.3 4 44 11.3
2010-12-13 09:11:11 51°16.142 2°54.376 43.5 3.9 34 11.1
2010-12-13 09:11:16 51°16.147 2°54.381 37.6 4.1 28 10.9
2010-12-13 09:11:21 51°16.152 2°54.383 28.8 4.2 17 10.9
2010-12-13 09:11:26 51°16.158 2°54.385 22.1 4.2 9 11.1
2010-12-13 09:11:31 51°16.164 2°54.385 14.6 4.2 2 11.1
2010-12-13 09:11:36 51°16.17 2°54.384 7.1 4.4 353 11.2
2010-12-13 09:11:41 51°16.176 2°54.381 359.4 4.5 346 11.2
2010-12-13 09:11:46 51°16.181 2°54.377 349.7 4.6 337 11.1
2010-12-13 09:11:51 51°16.187 2°54.372 343.7 4.7 331 11
2010-12-13 09:11:56 51°16.192 2°54.366 335.9 4.9 324 11.2
2010-12-13 09:12:01 51°16.198 2°54.359 328.5 5.3 317 11.2
2010-12-13 09:12:06 51°16.203 2°54.35 322.5 5.8 315 11.1
2010-12-13 09:12:11 51°16.209 2°54.339 315.6 6.3 309 11.1
2010-12-13 09:12:16 51°16.215 2°54.327 311.3 7.1 307 11.2
2010-12-13 09:12:21 51°16.221 2°54.313 308 7.7 306 11.2
2010-12-13 09:12:26 51°16.228 2°54.299 308.6 8.3 310 10.9
2010-12-13 09:12:31 51°16.236 2°54.285 311.5 8.8 312 11
2010-12-13 09:12:35 51°16.243 2°54.272 312.5 9.5 312 11.2
2010-12-13 09:12:41 51°16.255 2°54.253 314.2 10.1 315 11.1
2010-12-13 09:12:46 51°16.265 2°54.236 315.8 10.7 313 11.3
2010-12-13 09:12:51 51°16.276 2°54.22 316.6 10.9 317 11.4
2010-12-13 09:12:56 51°16.288 2°54.203 317.9 11.3 316 11
2010-12-13 09:13:01 51°16.3 2°54.185 317.9 11.8 318 11.2
2010-12-13 09:13:06 51°16.312 2°54.167 318.9 12.3 317 11.1
2010-12-13 09:13:11 51°16.325 2°54.148 319.2 12.4 318 11.2
2010-12-13 09:13:16 51°16.338 2°54.129 319.7 12.6 317 11
2010-12-13 09:13:21 51°16.351 2°54.11 318.6 12.9 316 11.3
2010-12-13 09:13:26 51°16.364 2°54.09 317.8 13 316 11.2
2010-12-13 09:13:31 51°16.377 2°54.069 317.3 13.1 315 11.2
2010-12-13 09:13:35 51°16.387 2°54.053 316.6 13.2 315 11.2
2010-12-13 09:13:41 51°16.403 2°54.028 316.2 13.2 315 11.3
2010-12-13 09:13:47 51°16.418 2°54.003 316.5 13.3 315 11.1
2010-12-13 09:13:51 51°16.429 2°53.986 316.5 13.3 315 11.6
2010-12-13 09:13:56 51°16.442 2°53.965 316.5 13.4 315 11.6
2010-12-13 09:14:01 51°16.455 2°53.944 316.5 13.5 315 11.6
2010-12-13 09:14:06 51°16.468 2°53.923 316.3 13.5 315 11.6
2010-12-13 09:14:11 51°16.481 2°53.902 316 13.4 315 11.5
2010-12-13 09:14:16 51°16.494 2°53.88 316 13.4 314 11.4
2010-12-13 09:14:21 51°16.507 2°53.859 315.8 13.5 312 11.5
2010-12-13 09:14:26 51°16.52 2°53.837 314.2 13.5 312 11.9
2010-12-13 09:14:31 51°16.532 2°53.815 313.2 13.5 312 11.8
2010-12-13 09:14:36 51°16.544 2°53.791 312.4 13.5 310 11.5
2010-12-13 09:14:41 51°16.556 2°53.769 311.5 13.4 310 11.3
2010-12-13 09:14:46 51°16.568 2°53.746 311.2 13.5 309 11.6
2010-12-13 09:14:51 51°16.58 2°53.723 310.5 13.5 309 11.6
2010-12-13 09:14:56 51°16.591 2°53.7 310.1 13.5 309 11.8
2010-12-13 09:15:01 51°16.603 2°53.676 310 13.4 308 11.2
2010-12-13 09:15:06 51°16.615 2°53.653 309.9 13.4 309 11.8
2010-12-13 09:15:11 51°16.626 2°53.63 310 13.4 309 11.6
2010-12-13 09:15:16 51°16.638 2°53.607 309.8 13.4 309 11.5
2010-12-13 09:15:21 51°16.65 2°53.584 309.9 13.4 309 11.3
2010-12-13 09:15:26 51°16.662 2°53.561 310 13.5 309 11.4
2010-12-13 09:15:31 51°16.674 2°53.537 310 13.5 310 11.3
2010-12-13 09:15:36 51°16.686 2°53.515 310.3 13.4 310 11.4
2010-12-13 09:15:41 51°16.698 2°53.492 310.3 13.5 309 11.5
2010-12-13 09:15:46 51°16.709 2°53.468 310.2 13.5 309 11.7
2010-12-13 09:15:51 51°16.721 2°53.445 310 13.5 309 11.3
2010-12-13 09:15:56 51°16.733 2°53.422 310 13.5 309 11.2
2010-12-13 09:16:01 51°16.745 2°53.398 310 13.6 308 11.3
2010-12-13 09:16:06 51°16.757 2°53.376 310.2 13.4 310 11.1
2010-12-13 09:16:11 51°16.768 2°53.353 310.5 13.3 309 11.1
2010-12-13 09:16:16 51°16.78 2°53.33 310.2 13.4 309 11.5
2010-12-13 09:16:21 51°16.791 2°53.306 310.4 13.5 307 11.6
2010-12-13 09:16:26 51°16.803 2°53.283 310 13.4 309 11.7
2010-12-13 09:16:31 51°16.815 2°53.26 310.5 13.4 310 11.1
2010-12-13 09:16:36 51°16.827 2°53.237 310.1 13.4 309 10.8
2010-12-13 09:16:41 51°16.839 2°53.215 310 13.4 310 10.4
2010-12-13 09:16:46 51°16.85 2°53.191 310.1 13.4 309 9.9
2010-12-13 09:16:51 51°16.862 2°53.169 310 13.3 309 9.5
2010-12-13 09:16:56 51°16.873 2°53.146 310 13.1 310 8.6
2010-12-13 09:17:01 51°16.885 2°53.124 310.1 12.9 309 8.2
2010-12-13 09:17:06 51°16.896 2°53.102 310.2 12.9 310 8.2
2010-12-13 09:17:11 51°16.907 2°53.08 310.1 12.9 309 8.7
2010-12-13 09:17:16 51°16.919 2°53.058 310.3 12.9 310 8.4
2010-12-13 09:17:21 51°16.93 2°53.035 310.7 13.1 309 8.6
2010-12-13 09:17:26 51°16.942 2°53.014 310.4 13.1 311 8.7
2010-12-13 09:17:31 51°16.953 2°52.991 310.8 13.1 309 8.5
2010-12-13 09:17:36 51°16.965 2°52.969 310.9 13.1 310 8.5
2010-12-13 09:17:41 51°16.977 2°52.947 310.8 13.2 310 8.9